sensor_id;sensor_type;location;lat;lon;timestamp;P1;durP1;ratioP1;P2;durP2;ratioP2
4420;SDS011;11824;51.178;13.546;2022-11-20T00:01:51;51.47;;;19.97;;
4420;SDS011;11824;51.178;13.546;2022-11-20T00:04:19;48.70;;;20.40;;
4420;SDS011;11824;51.178;13.546;2022-11-20T00:06:49;44.70;;;20.60;;
4420;SDS011;11824;51.178;13.546;2022-11-20T00:09:18;36.17;;;16.27;;
4420;SDS011;11824;51.178;13.546;2022-11-20T00:11:48;49.17;;;18.10;;
4420;SDS011;11824;51.178;13.546;2022-11-20T00:14:17;70.20;;;21.63;;
4420;SDS011;11824;51.178;13.546;2022-11-20T00:16:45;51.90;;;21.13;;
4420;SDS011;11824;51.178;13.546;2022-11-20T00:19:14;52.60;;;20.37;;
4420;SDS011;11824;51.178;13.546;2022-11-20T00:21:43;46.63;;;18.17;;
4420;SDS011;11824;51.178;13.546;2022-11-20T00:24:13;55.23;;;20.60;;
4420;SDS011;11824;51.178;13.546;2022-11-20T00:26:42;57.13;;;21.67;;
4420;SDS011;11824;51.178;13.546;2022-11-20T00:29:11;54.23;;;19.17;;
4420;SDS011;11824;51.178;13.546;2022-11-20T00:31:39;48.47;;;19.13;;
4420;SDS011;11824;51.178;13.546;2022-11-20T00:34:08;49.57;;;18.40;;
4420;SDS011;11824;51.178;13.546;2022-11-20T00:36:37;44.37;;;17.90;;
4420;SDS011;11824;51.178;13.546;2022-11-20T00:39:06;45.60;;;18.37;;
4420;SDS011;11824;51.178;13.546;2022-11-20T00:41:36;46.97;;;19.23;;
4420;SDS011;11824;51.178;13.546;2022-11-20T00:44:04;49.30;;;20.47;;
4420;SDS011;11824;51.178;13.546;2022-11-20T00:46:33;42.77;;;17.93;;
4420;SDS011;11824;51.178;13.546;2022-11-20T00:49:02;49.23;;;20.20;;
4420;SDS011;11824;51.178;13.546;2022-11-20T00:51:31;53.67;;;21.37;;
4420;SDS011;11824;51.178;13.546;2022-11-20T00:54:00;51.40;;;21.50;;
4420;SDS011;11824;51.178;13.546;2022-11-20T00:56:29;63.20;;;23.33;;
4420;SDS011;11824;51.178;13.546;2022-11-20T00:58:59;58.07;;;21.03;;
4420;SDS011;11824;51.178;13.546;2022-11-20T01:01:28;45.50;;;20.83;;
4420;SDS011;11824;51.178;13.546;2022-11-20T01:03:58;40.23;;;18.90;;
4420;SDS011;11824;51.178;13.546;2022-11-20T01:06:28;55.20;;;22.60;;
4420;SDS011;11824;51.178;13.546;2022-11-20T01:08:58;49.53;;;21.10;;
4420;SDS011;11824;51.178;13.546;2022-11-20T01:11:28;58.57;;;21.00;;
4420;SDS011;11824;51.178;13.546;2022-11-20T01:14:00;48.50;;;20.27;;
4420;SDS011;11824;51.178;13.546;2022-11-20T01:16:31;52.07;;;21.27;;
4420;SDS011;11824;51.178;13.546;2022-11-20T01:19:00;48.90;;;20.37;;
4420;SDS011;11824;51.178;13.546;2022-11-20T01:21:32;56.30;;;18.20;;
4420;SDS011;11824;51.178;13.546;2022-11-20T01:24:02;45.60;;;18.70;;
4420;SDS011;11824;51.178;13.546;2022-11-20T01:26:33;48.73;;;21.10;;
4420;SDS011;11824;51.178;13.546;2022-11-20T01:29:06;46.60;;;17.37;;
4420;SDS011;11824;51.178;13.546;2022-11-20T01:31:38;50.10;;;18.57;;
4420;SDS011;11824;51.178;13.546;2022-11-20T01:34:07;43.57;;;18.33;;
4420;SDS011;11824;51.178;13.546;2022-11-20T01:36:38;45.13;;;18.10;;
4420;SDS011;11824;51.178;13.546;2022-11-20T01:39:10;38.37;;;17.77;;
4420;SDS011;11824;51.178;13.546;2022-11-20T01:41:40;47.07;;;18.93;;
4420;SDS011;11824;51.178;13.546;2022-11-20T01:44:51;35.90;;;16.33;;
4420;SDS011;11824;51.178;13.546;2022-11-20T01:47:23;43.43;;;19.50;;
4420;SDS011;11824;51.178;13.546;2022-11-20T01:49:56;42.47;;;18.83;;
4420;SDS011;11824;51.178;13.546;2022-11-20T01:52:29;43.97;;;16.83;;
4420;SDS011;11824;51.178;13.546;2022-11-20T01:55:02;38.77;;;17.20;;
4420;SDS011;11824;51.178;13.546;2022-11-20T01:57:33;43.37;;;19.17;;
4420;SDS011;11824;51.178;13.546;2022-11-20T02:00:05;48.03;;;17.13;;
4420;SDS011;11824;51.178;13.546;2022-11-20T02:02:36;48.50;;;18.03;;
4420;SDS011;11824;51.178;13.546;2022-11-20T02:05:09;45.03;;;18.93;;
4420;SDS011;11824;51.178;13.546;2022-11-20T02:07:45;36.20;;;17.17;;
4420;SDS011;11824;51.178;13.546;2022-11-20T02:10:15;49.83;;;20.67;;
4420;SDS011;11824;51.178;13.546;2022-11-20T02:12:44;44.73;;;18.47;;
4420;SDS011;11824;51.178;13.546;2022-11-20T02:15:33;48.10;;;18.90;;
4420;SDS011;11824;51.178;13.546;2022-11-20T02:18:02;54.17;;;17.90;;
4420;SDS011;11824;51.178;13.546;2022-11-20T02:20:31;39.73;;;15.33;;
4420;SDS011;11824;51.178;13.546;2022-11-20T02:23:01;39.23;;;16.20;;
4420;SDS011;11824;51.178;13.546;2022-11-20T02:25:37;45.40;;;16.40;;
4420;SDS011;11824;51.178;13.546;2022-11-20T02:28:06;38.00;;;17.60;;
4420;SDS011;11824;51.178;13.546;2022-11-20T02:30:35;41.83;;;17.57;;
4420;SDS011;11824;51.178;13.546;2022-11-20T02:33:04;35.90;;;16.57;;
4420;SDS011;11824;51.178;13.546;2022-11-20T02:35:40;43.37;;;16.80;;
4420;SDS011;11824;51.178;13.546;2022-11-20T02:38:10;40.10;;;17.00;;
4420;SDS011;11824;51.178;13.546;2022-11-20T02:40:41;44.60;;;17.97;;
4420;SDS011;11824;51.178;13.546;2022-11-20T02:43:10;39.80;;;17.90;;
4420;SDS011;11824;51.178;13.546;2022-11-20T02:45:39;46.70;;;17.53;;
4420;SDS011;11824;51.178;13.546;2022-11-20T02:48:07;37.17;;;16.73;;
4420;SDS011;11824;51.178;13.546;2022-11-20T02:50:37;40.73;;;17.07;;
4420;SDS011;11824;51.178;13.546;2022-11-20T02:53:06;44.90;;;16.27;;
4420;SDS011;11824;51.178;13.546;2022-11-20T02:55:35;55.20;;;18.30;;
4420;SDS011;11824;51.178;13.546;2022-11-20T02:58:05;41.70;;;18.53;;
4420;SDS011;11824;51.178;13.546;2022-11-20T03:00:34;42.60;;;17.17;;
4420;SDS011;11824;51.178;13.546;2022-11-20T03:03:03;43.83;;;17.50;;
4420;SDS011;11824;51.178;13.546;2022-11-20T03:05:31;36.43;;;16.93;;
4420;SDS011;11824;51.178;13.546;2022-11-20T03:08:00;31.33;;;15.37;;
4420;SDS011;11824;51.178;13.546;2022-11-20T03:10:29;39.03;;;17.10;;
4420;SDS011;11824;51.178;13.546;2022-11-20T03:12:57;38.67;;;16.30;;
4420;SDS011;11824;51.178;13.546;2022-11-20T03:15:27;47.63;;;17.00;;
4420;SDS011;11824;51.178;13.546;2022-11-20T03:17:56;40.53;;;16.33;;
4420;SDS011;11824;51.178;13.546;2022-11-20T03:20:25;35.90;;;15.87;;
4420;SDS011;11824;51.178;13.546;2022-11-20T03:22:53;44.37;;;17.80;;
4420;SDS011;11824;51.178;13.546;2022-11-20T03:25:22;33.83;;;16.50;;
4420;SDS011;11824;51.178;13.546;2022-11-20T03:27:51;41.23;;;18.10;;
4420;SDS011;11824;51.178;13.546;2022-11-20T03:30:19;39.40;;;15.03;;
4420;SDS011;11824;51.178;13.546;2022-11-20T03:32:57;38.30;;;16.97;;
4420;SDS011;11824;51.178;13.546;2022-11-20T03:35:26;38.60;;;15.67;;
4420;SDS011;11824;51.178;13.546;2022-11-20T03:37:54;40.73;;;16.00;;
4420;SDS011;11824;51.178;13.546;2022-11-20T03:40:24;31.10;;;15.00;;
4420;SDS011;11824;51.178;13.546;2022-11-20T03:42:53;36.47;;;15.33;;
4420;SDS011;11824;51.178;13.546;2022-11-20T03:45:21;49.20;;;16.60;;
4420;SDS011;11824;51.178;13.546;2022-11-20T03:47:50;38.10;;;16.50;;
4420;SDS011;11824;51.178;13.546;2022-11-20T03:50:20;38.30;;;15.20;;
4420;SDS011;11824;51.178;13.546;2022-11-20T03:52:49;40.50;;;14.17;;
4420;SDS011;11824;51.178;13.546;2022-11-20T03:55:17;40.80;;;15.30;;
4420;SDS011;11824;51.178;13.546;2022-11-20T03:57:46;37.07;;;13.97;;
4420;SDS011;11824;51.178;13.546;2022-11-20T04:00:15;39.10;;;16.27;;
4420;SDS011;11824;51.178;13.546;2022-11-20T04:02:43;39.67;;;14.80;;
4420;SDS011;11824;51.178;13.546;2022-11-20T04:05:12;29.23;;;13.10;;
4420;SDS011;11824;51.178;13.546;2022-11-20T04:07:42;36.97;;;13.43;;
4420;SDS011;11824;51.178;13.546;2022-11-20T04:10:11;36.10;;;13.80;;
4420;SDS011;11824;51.178;13.546;2022-11-20T04:12:40;40.23;;;15.80;;
4420;SDS011;11824;51.178;13.546;2022-11-20T04:15:09;28.23;;;13.77;;
4420;SDS011;11824;51.178;13.546;2022-11-20T04:17:37;38.87;;;15.57;;
4420;SDS011;11824;51.178;13.546;2022-11-20T04:20:06;36.23;;;14.40;;
4420;SDS011;11824;51.178;13.546;2022-11-20T04:22:35;30.70;;;13.77;;
4420;SDS011;11824;51.178;13.546;2022-11-20T04:25:06;31.53;;;14.40;;
4420;SDS011;11824;51.178;13.546;2022-11-20T04:27:35;41.27;;;15.30;;
4420;SDS011;11824;51.178;13.546;2022-11-20T04:30:04;40.37;;;14.87;;
4420;SDS011;11824;51.178;13.546;2022-11-20T04:32:33;31.00;;;13.20;;
4420;SDS011;11824;51.178;13.546;2022-11-20T04:35:02;30.33;;;13.83;;
4420;SDS011;11824;51.178;13.546;2022-11-20T04:37:31;30.30;;;14.00;;
4420;SDS011;11824;51.178;13.546;2022-11-20T04:39:59;41.90;;;16.17;;
4420;SDS011;11824;51.178;13.546;2022-11-20T04:42:29;37.37;;;14.97;;
4420;SDS011;11824;51.178;13.546;2022-11-20T04:44:58;43.07;;;15.77;;
4420;SDS011;11824;51.178;13.546;2022-11-20T04:47:27;34.87;;;15.70;;
4420;SDS011;11824;51.178;13.546;2022-11-20T04:49:55;30.00;;;13.27;;
4420;SDS011;11824;51.178;13.546;2022-11-20T04:52:24;39.70;;;15.27;;
4420;SDS011;11824;51.178;13.546;2022-11-20T04:54:53;41.50;;;15.93;;
4420;SDS011;11824;51.178;13.546;2022-11-20T04:57:21;34.87;;;14.40;;
4420;SDS011;11824;51.178;13.546;2022-11-20T04:59:51;42.17;;;15.37;;
4420;SDS011;11824;51.178;13.546;2022-11-20T05:02:21;32.90;;;14.20;;
4420;SDS011;11824;51.178;13.546;2022-11-20T05:04:49;30.67;;;13.17;;
4420;SDS011;11824;51.178;13.546;2022-11-20T05:07:18;38.60;;;15.67;;
4420;SDS011;11824;51.178;13.546;2022-11-20T05:09:47;29.67;;;12.47;;
4420;SDS011;11824;51.178;13.546;2022-11-20T05:12:16;29.33;;;12.83;;
4420;SDS011;11824;51.178;13.546;2022-11-20T05:14:44;30.97;;;14.47;;
4420;SDS011;11824;51.178;13.546;2022-11-20T05:17:14;27.77;;;13.97;;
4420;SDS011;11824;51.178;13.546;2022-11-20T05:19:43;31.67;;;12.77;;
4420;SDS011;11824;51.178;13.546;2022-11-20T05:22:18;38.63;;;15.20;;
4420;SDS011;11824;51.178;13.546;2022-11-20T05:24:46;31.83;;;13.17;;
4420;SDS011;11824;51.178;13.546;2022-11-20T05:27:15;37.67;;;15.80;;
4420;SDS011;11824;51.178;13.546;2022-11-20T05:29:44;35.43;;;14.07;;
4420;SDS011;11824;51.178;13.546;2022-11-20T05:32:12;31.23;;;14.07;;
4420;SDS011;11824;51.178;13.546;2022-11-20T05:34:42;36.77;;;15.10;;
4420;SDS011;11824;51.178;13.546;2022-11-20T05:37:11;34.20;;;13.17;;
4420;SDS011;11824;51.178;13.546;2022-11-20T05:39:40;39.10;;;15.00;;
4420;SDS011;11824;51.178;13.546;2022-11-20T05:42:08;37.13;;;13.73;;
4420;SDS011;11824;51.178;13.546;2022-11-20T05:44:54;40.10;;;14.40;;
4420;SDS011;11824;51.178;13.546;2022-11-20T05:47:24;40.37;;;14.67;;
4420;SDS011;11824;51.178;13.546;2022-11-20T05:49:53;30.90;;;13.43;;
4420;SDS011;11824;51.178;13.546;2022-11-20T05:52:22;36.70;;;14.23;;
4420;SDS011;11824;51.178;13.546;2022-11-20T05:54:51;30.10;;;13.17;;
4420;SDS011;11824;51.178;13.546;2022-11-20T05:57:19;35.17;;;15.40;;
4420;SDS011;11824;51.178;13.546;2022-11-20T05:59:48;33.70;;;13.07;;
4420;SDS011;11824;51.178;13.546;2022-11-20T06:02:17;34.80;;;12.80;;
4420;SDS011;11824;51.178;13.546;2022-11-20T06:04:47;36.20;;;15.27;;
4420;SDS011;11824;51.178;13.546;2022-11-20T06:07:15;32.83;;;13.70;;
4420;SDS011;11824;51.178;13.546;2022-11-20T06:09:44;42.07;;;15.27;;
4420;SDS011;11824;51.178;13.546;2022-11-20T06:12:13;33.43;;;13.07;;
4420;SDS011;11824;51.178;13.546;2022-11-20T06:14:41;43.60;;;14.07;;
4420;SDS011;11824;51.178;13.546;2022-11-20T06:17:10;29.17;;;14.70;;
4420;SDS011;11824;51.178;13.546;2022-11-20T06:19:39;31.83;;;13.40;;
4420;SDS011;11824;51.178;13.546;2022-11-20T06:22:09;63.63;;;16.27;;
4420;SDS011;11824;51.178;13.546;2022-11-20T06:24:37;35.90;;;12.87;;
4420;SDS011;11824;51.178;13.546;2022-11-20T06:27:06;36.07;;;14.57;;
4420;SDS011;11824;51.178;13.546;2022-11-20T06:29:35;41.33;;;13.50;;
4420;SDS011;11824;51.178;13.546;2022-11-20T06:32:03;32.83;;;13.90;;
4420;SDS011;11824;51.178;13.546;2022-11-20T06:34:32;30.97;;;12.60;;
4420;SDS011;11824;51.178;13.546;2022-11-20T06:37:01;36.03;;;14.07;;
4420;SDS011;11824;51.178;13.546;2022-11-20T06:39:31;33.27;;;13.20;;
4420;SDS011;11824;51.178;13.546;2022-11-20T06:41:59;35.30;;;12.97;;
4420;SDS011;11824;51.178;13.546;2022-11-20T06:44:28;37.13;;;14.73;;
4420;SDS011;11824;51.178;13.546;2022-11-20T06:46:57;31.77;;;12.73;;
4420;SDS011;11824;51.178;13.546;2022-11-20T06:49:26;48.13;;;15.87;;
4420;SDS011;11824;51.178;13.546;2022-11-20T06:51:54;30.87;;;11.93;;
4420;SDS011;11824;51.178;13.546;2022-11-20T06:54:23;37.90;;;14.67;;
4420;SDS011;11824;51.178;13.546;2022-11-20T06:56:53;42.37;;;14.80;;
4420;SDS011;11824;51.178;13.546;2022-11-20T06:59:22;42.90;;;14.83;;
4420;SDS011;11824;51.178;13.546;2022-11-20T07:01:51;30.87;;;13.07;;
4420;SDS011;11824;51.178;13.546;2022-11-20T07:04:19;33.13;;;14.07;;
4420;SDS011;11824;51.178;13.546;2022-11-20T07:06:48;38.90;;;14.63;;
4420;SDS011;11824;51.178;13.546;2022-11-20T07:09:17;38.33;;;15.80;;
4420;SDS011;11824;51.178;13.546;2022-11-20T07:11:46;38.77;;;15.13;;
4420;SDS011;11824;51.178;13.546;2022-11-20T07:14:16;40.87;;;15.20;;
4420;SDS011;11824;51.178;13.546;2022-11-20T07:16:45;40.63;;;16.30;;
4420;SDS011;11824;51.178;13.546;2022-11-20T07:19:13;36.73;;;15.27;;
4420;SDS011;11824;51.178;13.546;2022-11-20T07:21:42;38.17;;;16.47;;
4420;SDS011;11824;51.178;13.546;2022-11-20T07:24:11;45.23;;;16.70;;
4420;SDS011;11824;51.178;13.546;2022-11-20T07:26:40;41.87;;;16.60;;
4420;SDS011;11824;51.178;13.546;2022-11-20T07:29:08;33.93;;;15.30;;
4420;SDS011;11824;51.178;13.546;2022-11-20T07:31:39;40.07;;;15.57;;
4420;SDS011;11824;51.178;13.546;2022-11-20T07:34:07;37.67;;;15.03;;
4420;SDS011;11824;51.178;13.546;2022-11-20T07:36:36;43.03;;;17.97;;
4420;SDS011;11824;51.178;13.546;2022-11-20T07:39:05;50.47;;;17.20;;
4420;SDS011;11824;51.178;13.546;2022-11-20T07:41:34;47.63;;;17.87;;
4420;SDS011;11824;51.178;13.546;2022-11-20T07:44:03;43.77;;;17.40;;
4420;SDS011;11824;51.178;13.546;2022-11-20T07:46:32;49.00;;;16.27;;
4420;SDS011;11824;51.178;13.546;2022-11-20T07:49:03;46.93;;;15.37;;
4420;SDS011;11824;51.178;13.546;2022-11-20T07:51:32;78.07;;;28.20;;
4420;SDS011;11824;51.178;13.546;2022-11-20T07:54:01;65.50;;;23.93;;
4420;SDS011;11824;51.178;13.546;2022-11-20T07:56:30;56.47;;;22.27;;
4420;SDS011;11824;51.178;13.546;2022-11-20T07:58:59;58.53;;;20.27;;
4420;SDS011;11824;51.178;13.546;2022-11-20T08:01:28;50.33;;;20.93;;
4420;SDS011;11824;51.178;13.546;2022-11-20T08:03:57;48.87;;;17.50;;
4420;SDS011;11824;51.178;13.546;2022-11-20T08:06:28;46.90;;;19.77;;
4420;SDS011;11824;51.178;13.546;2022-11-20T08:08:57;35.03;;;16.07;;
4420;SDS011;11824;51.178;13.546;2022-11-20T08:11:26;45.37;;;19.17;;
4420;SDS011;11824;51.178;13.546;2022-11-20T08:14:13;45.50;;;17.57;;
4420;SDS011;11824;51.178;13.546;2022-11-20T08:16:43;49.73;;;17.33;;
4420;SDS011;11824;51.178;13.546;2022-11-20T08:19:13;36.23;;;16.17;;
4420;SDS011;11824;51.178;13.546;2022-11-20T08:21:45;37.10;;;16.20;;
4420;SDS011;11824;51.178;13.546;2022-11-20T08:24:14;45.87;;;16.33;;
4420;SDS011;11824;51.178;13.546;2022-11-20T08:26:43;50.00;;;14.87;;
4420;SDS011;11824;51.178;13.546;2022-11-20T08:29:12;48.83;;;19.47;;
4420;SDS011;11824;51.178;13.546;2022-11-20T08:31:44;46.87;;;19.83;;
4420;SDS011;11824;51.178;13.546;2022-11-20T08:34:13;32.07;;;13.80;;
4420;SDS011;11824;51.178;13.546;2022-11-20T08:36:46;37.80;;;14.77;;
4420;SDS011;11824;51.178;13.546;2022-11-20T08:39:15;55.67;;;15.80;;
4420;SDS011;11824;51.178;13.546;2022-11-20T08:41:45;44.53;;;17.10;;
4420;SDS011;11824;51.178;13.546;2022-11-20T08:44:14;45.87;;;18.43;;
4420;SDS011;11824;51.178;13.546;2022-11-20T08:46:43;40.37;;;16.63;;
4420;SDS011;11824;51.178;13.546;2022-11-20T08:49:13;53.00;;;15.13;;
4420;SDS011;11824;51.178;13.546;2022-11-20T08:51:45;33.43;;;14.17;;
4420;SDS011;11824;51.178;13.546;2022-11-20T08:54:17;43.27;;;15.60;;
4420;SDS011;11824;51.178;13.546;2022-11-20T08:56:48;35.77;;;16.87;;
4420;SDS011;11824;51.178;13.546;2022-11-20T08:59:17;31.50;;;14.80;;
4420;SDS011;11824;51.178;13.546;2022-11-20T09:02:05;24.07;;;11.77;;
4420;SDS011;11824;51.178;13.546;2022-11-20T09:04:35;39.27;;;15.60;;
4420;SDS011;11824;51.178;13.546;2022-11-20T09:07:05;47.63;;;17.67;;
4420;SDS011;11824;51.178;13.546;2022-11-20T09:09:34;47.90;;;15.50;;
4420;SDS011;11824;51.178;13.546;2022-11-20T09:12:03;34.77;;;14.60;;
4420;SDS011;11824;51.178;13.546;2022-11-20T09:14:32;32.70;;;14.80;;
4420;SDS011;11824;51.178;13.546;2022-11-20T09:17:01;31.20;;;12.70;;
4420;SDS011;11824;51.178;13.546;2022-11-20T09:19:29;29.53;;;12.57;;
4420;SDS011;11824;51.178;13.546;2022-11-20T09:22:01;31.00;;;14.10;;
4420;SDS011;11824;51.178;13.546;2022-11-20T09:24:31;35.87;;;13.33;;
4420;SDS011;11824;51.178;13.546;2022-11-20T09:27:03;128.20;;;49.23;;
4420;SDS011;11824;51.178;13.546;2022-11-20T09:29:32;36.10;;;15.30;;
4420;SDS011;11824;51.178;13.546;2022-11-20T09:32:01;31.17;;;11.97;;
4420;SDS011;11824;51.178;13.546;2022-11-20T09:34:30;28.67;;;13.33;;
4420;SDS011;11824;51.178;13.546;2022-11-20T09:36:59;25.83;;;11.13;;
4420;SDS011;11824;51.178;13.546;2022-11-20T09:39:34;31.77;;;12.70;;
4420;SDS011;11824;51.178;13.546;2022-11-20T09:42:31;31.30;;;12.77;;
4420;SDS011;11824;51.178;13.546;2022-11-20T09:45:08;33.30;;;12.70;;
4420;SDS011;11824;51.178;13.546;2022-11-20T09:47:50;27.97;;;10.97;;
4420;SDS011;11824;51.178;13.546;2022-11-20T09:50:29;25.20;;;12.93;;
4420;SDS011;11824;51.178;13.546;2022-11-20T09:53:13;32.33;;;12.80;;
4420;SDS011;11824;51.178;13.546;2022-11-20T09:55:52;27.20;;;12.60;;
4420;SDS011;11824;51.178;13.546;2022-11-20T09:58:24;28.60;;;13.20;;
4420;SDS011;11824;51.178;13.546;2022-11-20T10:00:59;30.30;;;12.57;;
4420;SDS011;11824;51.178;13.546;2022-11-20T10:03:38;28.70;;;13.23;;
4420;SDS011;11824;51.178;13.546;2022-11-20T10:06:21;36.20;;;13.80;;
4420;SDS011;11824;51.178;13.546;2022-11-20T10:08:59;35.97;;;13.73;;
4420;SDS011;11824;51.178;13.546;2022-11-20T10:11:38;26.70;;;12.07;;
4420;SDS011;11824;51.178;13.546;2022-11-20T10:14:16;27.67;;;11.50;;
4420;SDS011;11824;51.178;13.546;2022-11-20T10:16:58;30.60;;;12.70;;
4420;SDS011;11824;51.178;13.546;2022-11-20T10:19:40;24.83;;;12.67;;
4420;SDS011;11824;51.178;13.546;2022-11-20T10:22:23;25.60;;;12.30;;
4420;SDS011;11824;51.178;13.546;2022-11-20T10:25:04;26.20;;;11.20;;
4420;SDS011;11824;51.178;13.546;2022-11-20T10:27:43;25.40;;;12.10;;
4420;SDS011;11824;51.178;13.546;2022-11-20T10:30:23;31.73;;;13.80;;
4420;SDS011;11824;51.178;13.546;2022-11-20T10:32:54;24.77;;;11.97;;
4420;SDS011;11824;51.178;13.546;2022-11-20T10:35:29;22.97;;;11.83;;
4420;SDS011;11824;51.178;13.546;2022-11-20T10:38:03;26.50;;;11.87;;
4420;SDS011;11824;51.178;13.546;2022-11-20T10:40:38;28.23;;;13.20;;
4420;SDS011;11824;51.178;13.546;2022-11-20T10:43:12;26.97;;;13.10;;
4420;SDS011;11824;51.178;13.546;2022-11-20T10:45:45;23.83;;;11.03;;
4420;SDS011;11824;51.178;13.546;2022-11-20T10:48:19;29.13;;;13.00;;
4420;SDS011;11824;51.178;13.546;2022-11-20T10:50:53;24.07;;;11.00;;
4420;SDS011;11824;51.178;13.546;2022-11-20T10:53:47;21.83;;;11.70;;
4420;SDS011;11824;51.178;13.546;2022-11-20T10:56:25;30.87;;;12.70;;
4420;SDS011;11824;51.178;13.546;2022-11-20T11:01:59;25.23;;;11.80;;
4420;SDS011;11824;51.178;13.546;2022-11-20T11:04:32;28.90;;;11.60;;
4420;SDS011;11824;51.178;13.546;2022-11-20T11:07:06;20.50;;;8.97;;
4420;SDS011;11824;51.178;13.546;2022-11-20T11:09:39;20.40;;;8.27;;
4420;SDS011;11824;51.178;13.546;2022-11-20T11:12:10;23.23;;;10.10;;
4420;SDS011;11824;51.178;13.546;2022-11-20T11:14:45;26.07;;;11.97;;
4420;SDS011;11824;51.178;13.546;2022-11-20T11:17:21;18.33;;;10.00;;
4420;SDS011;11824;51.178;13.546;2022-11-20T11:19:57;20.97;;;11.50;;
4420;SDS011;11824;51.178;13.546;2022-11-20T11:22:32;23.53;;;10.10;;
4420;SDS011;11824;51.178;13.546;2022-11-20T11:25:18;23.87;;;10.57;;
4420;SDS011;11824;51.178;13.546;2022-11-20T11:27:53;23.47;;;11.10;;
4420;SDS011;11824;51.178;13.546;2022-11-20T11:30:25;22.63;;;10.23;;
4420;SDS011;11824;51.178;13.546;2022-11-20T11:33:04;28.23;;;12.33;;
4420;SDS011;11824;51.178;13.546;2022-11-20T11:35:38;17.23;;;8.27;;
4420;SDS011;11824;51.178;13.546;2022-11-20T11:38:28;22.20;;;10.77;;
4420;SDS011;11824;51.178;13.546;2022-11-20T11:40:58;23.30;;;11.50;;
4420;SDS011;11824;51.178;13.546;2022-11-20T11:43:28;27.43;;;12.30;;
4420;SDS011;11824;51.178;13.546;2022-11-20T11:46:32;27.70;;;12.77;;
4420;SDS011;11824;51.178;13.546;2022-11-20T11:49:11;20.40;;;8.77;;
4420;SDS011;11824;51.178;13.546;2022-11-20T11:51:47;25.07;;;11.07;;
4420;SDS011;11824;51.178;13.546;2022-11-20T11:54:28;29.00;;;13.10;;
4420;SDS011;11824;51.178;13.546;2022-11-20T11:57:04;23.10;;;10.50;;
4420;SDS011;11824;51.178;13.546;2022-11-20T11:59:49;24.13;;;12.67;;
4420;SDS011;11824;51.178;13.546;2022-11-20T12:02:31;32.77;;;15.20;;
4420;SDS011;11824;51.178;13.546;2022-11-20T12:05:06;30.33;;;13.00;;
4420;SDS011;11824;51.178;13.546;2022-11-20T12:07:45;24.47;;;11.50;;
4420;SDS011;11824;51.178;13.546;2022-11-20T12:10:19;26.77;;;10.77;;
4420;SDS011;11824;51.178;13.546;2022-11-20T12:12:52;29.33;;;11.90;;
4420;SDS011;11824;51.178;13.546;2022-11-20T12:15:28;28.93;;;11.50;;
4420;SDS011;11824;51.178;13.546;2022-11-20T12:17:59;13.13;;;6.97;;
4420;SDS011;11824;51.178;13.546;2022-11-20T12:20:31;27.60;;;13.43;;
4420;SDS011;11824;51.178;13.546;2022-11-20T12:23:08;22.13;;;12.43;;
4420;SDS011;11824;51.178;13.546;2022-11-20T12:25:43;40.13;;;15.23;;
4420;SDS011;11824;51.178;13.546;2022-11-20T12:28:28;29.13;;;14.37;;
4420;SDS011;11824;51.178;13.546;2022-11-20T12:31:14;24.80;;;12.90;;
4420;SDS011;11824;51.178;13.546;2022-11-20T12:33:57;22.83;;;9.97;;
4420;SDS011;11824;51.178;13.546;2022-11-20T12:36:36;20.93;;;11.37;;
4420;SDS011;11824;51.178;13.546;2022-11-20T12:42:16;16.33;;;8.37;;
4420;SDS011;11824;51.178;13.546;2022-11-20T12:45:16;28.13;;;11.80;;
4420;SDS011;11824;51.178;13.546;2022-11-20T12:48:03;21.63;;;9.70;;
4420;SDS011;11824;51.178;13.546;2022-11-20T12:50:56;23.63;;;11.93;;
4420;SDS011;11824;51.178;13.546;2022-11-20T12:53:56;24.47;;;10.30;;
4420;SDS011;11824;51.178;13.546;2022-11-20T12:56:37;22.63;;;12.63;;
4420;SDS011;11824;51.178;13.546;2022-11-20T12:59:32;22.20;;;11.70;;
4420;SDS011;11824;51.178;13.546;2022-11-20T13:02:18;23.63;;;11.77;;
4420;SDS011;11824;51.178;13.546;2022-11-20T13:05:01;24.43;;;11.03;;
4420;SDS011;11824;51.178;13.546;2022-11-20T13:07:37;24.17;;;12.30;;
4420;SDS011;11824;51.178;13.546;2022-11-20T13:10:11;16.43;;;8.40;;
4420;SDS011;11824;51.178;13.546;2022-11-20T13:12:45;29.37;;;12.47;;
4420;SDS011;11824;51.178;13.546;2022-11-20T13:15:18;32.03;;;13.30;;
4420;SDS011;11824;51.178;13.546;2022-11-20T13:17:59;20.27;;;8.57;;
4420;SDS011;11824;51.178;13.546;2022-11-20T13:20:29;25.27;;;11.50;;
4420;SDS011;11824;51.178;13.546;2022-11-20T13:23:08;15.67;;;8.13;;
4420;SDS011;11824;51.178;13.546;2022-11-20T13:26:14;13.23;;;7.07;;
4420;SDS011;11824;51.178;13.546;2022-11-20T13:28:48;14.97;;;8.57;;
4420;SDS011;11824;51.178;13.546;2022-11-20T13:31:34;14.93;;;7.13;;
4420;SDS011;11824;51.178;13.546;2022-11-20T13:34:05;16.33;;;8.70;;
4420;SDS011;11824;51.178;13.546;2022-11-20T13:36:48;15.17;;;7.40;;
4420;SDS011;11824;51.178;13.546;2022-11-20T13:39:26;13.37;;;8.37;;
4420;SDS011;11824;51.178;13.546;2022-11-20T13:41:57;14.40;;;6.90;;
4420;SDS011;11824;51.178;13.546;2022-11-20T13:44:29;15.00;;;7.07;;
4420;SDS011;11824;51.178;13.546;2022-11-20T13:47:03;15.00;;;8.37;;
4420;SDS011;11824;51.178;13.546;2022-11-20T13:49:51;12.83;;;7.00;;
4420;SDS011;11824;51.178;13.546;2022-11-20T13:52:37;17.33;;;8.93;;
4420;SDS011;11824;51.178;13.546;2022-11-20T13:55:21;15.10;;;7.63;;
4420;SDS011;11824;51.178;13.546;2022-11-20T13:58:18;13.53;;;6.67;;
4420;SDS011;11824;51.178;13.546;2022-11-20T14:01:08;18.13;;;9.03;;
4420;SDS011;11824;51.178;13.546;2022-11-20T14:03:38;18.20;;;8.70;;
4420;SDS011;11824;51.178;13.546;2022-11-20T14:06:28;16.67;;;9.00;;
4420;SDS011;11824;51.178;13.546;2022-11-20T14:08:59;24.83;;;10.73;;
4420;SDS011;11824;51.178;13.546;2022-11-20T14:11:30;14.13;;;7.73;;
4420;SDS011;11824;51.178;13.546;2022-11-20T14:14:03;11.87;;;6.07;;
4420;SDS011;11824;51.178;13.546;2022-11-20T14:16:41;29.03;;;8.20;;
4420;SDS011;11824;51.178;13.546;2022-11-20T14:19:23;18.10;;;9.33;;
4420;SDS011;11824;51.178;13.546;2022-11-20T14:22:08;18.73;;;8.80;;
4420;SDS011;11824;51.178;13.546;2022-11-20T14:24:43;16.70;;;9.40;;
4420;SDS011;11824;51.178;13.546;2022-11-20T14:27:15;16.83;;;10.23;;
4420;SDS011;11824;51.178;13.546;2022-11-20T14:29:46;15.87;;;9.20;;
4420;SDS011;11824;51.178;13.546;2022-11-20T14:32:17;26.90;;;8.53;;
4420;SDS011;11824;51.178;13.546;2022-11-20T14:34:48;14.90;;;7.90;;
4420;SDS011;11824;51.178;13.546;2022-11-20T14:38:00;15.13;;;7.90;;
4420;SDS011;11824;51.178;13.546;2022-11-20T14:40:35;17.43;;;8.90;;
4420;SDS011;11824;51.178;13.546;2022-11-20T14:43:15;36.50;;;15.83;;
4420;SDS011;11824;51.178;13.546;2022-11-20T14:45:48;17.43;;;9.47;;
4420;SDS011;11824;51.178;13.546;2022-11-20T14:48:26;33.83;;;16.17;;
4420;SDS011;11824;51.178;13.546;2022-11-20T14:50:58;37.67;;;14.80;;
4420;SDS011;11824;51.178;13.546;2022-11-20T14:53:27;21.80;;;10.50;;
4420;SDS011;11824;51.178;13.546;2022-11-20T14:55:56;22.27;;;11.37;;
4420;SDS011;11824;51.178;13.546;2022-11-20T14:58:29;17.80;;;10.90;;
4420;SDS011;11824;51.178;13.546;2022-11-20T15:01:01;17.90;;;10.03;;
4420;SDS011;11824;51.178;13.546;2022-11-20T15:03:32;22.43;;;10.97;;